Time;durP1;ratioP1;P1;durP2;ratioP2;P2;SDS_P1;SDS_P2;PMS_P1;PMS_P2;Temp;Humidity;BMP_temperature;BMP_pressure;BME280_temperature;BME280_humidity;BME280_pressure;Samples;Min_cycle;Max_cycle;Signal;HPM_P1;HPM_P2
2021/07/03 00:01:57;;;;;;;0.80;0.70;;;13.40;99.90;;;-143.50;100.00;58913.53;4994529;28;20445;-73
2021/07/03 00:04:25;;;;;;;0.70;0.70;;;13.40;99.90;;;-143.50;100.00;58913.53;4995673;28;20900;-73
2021/07/03 00:06:52;;;;;;;0.80;0.70;;;13.40;99.90;;;-143.50;100.00;58913.53;4993390;28;20979;-73
2021/07/03 00:09:20;;;;;;;0.70;0.70;;;13.40;99.90;;;-143.50;100.00;58913.53;4993699;28;20460;-73
2021/07/03 00:11:49;;;;;;;0.70;0.67;;;13.40;99.90;;;-143.50;100.00;58913.53;4995079;28;20500;-73
2021/07/03 00:14:17;;;;;;;0.70;0.63;;;13.40;99.90;;;-143.50;100.00;58913.53;4995137;28;20449;-73
2021/07/03 00:16:46;;;;;;;0.80;0.60;;;13.30;99.90;;;-143.50;100.00;58913.53;4994170;28;20456;-73
2021/07/03 00:19:14;;;;;;;0.80;0.70;;;13.30;99.90;;;-143.50;100.00;58913.53;4994638;28;20502;-72
2021/07/03 00:21:41;;;;;;;0.70;0.70;;;13.30;99.90;;;-143.50;100.00;58913.53;4993149;28;20948;-73
2021/07/03 00:24:09;;;;;;;0.70;0.70;;;13.30;99.90;;;-143.50;100.00;58913.53;4994560;28;20490;-74
2021/07/03 00:26:36;;;;;;;0.70;0.70;;;13.20;99.90;;;-143.50;100.00;58913.53;4993193;28;20506;-74
2021/07/03 00:29:05;;;;;;;0.70;0.60;;;13.20;99.90;;;-143.50;100.00;58913.53;4993358;28;20472;-72
2021/07/03 00:31:33;;;;;;;0.70;0.70;;;13.20;99.90;;;-143.50;100.00;58913.53;4994858;28;20794;-73
2021/07/03 00:34:01;;;;;;;0.70;0.70;;;13.10;99.90;;;-143.50;100.00;58913.53;4992510;28;20444;-72
2021/07/03 00:36:30;;;;;;;0.80;0.70;;;13.10;99.90;;;-143.50;100.00;58913.53;4992364;28;20492;-73
2021/07/03 00:38:58;;;;;;;0.80;0.70;;;13.10;99.90;;;-143.50;100.00;58913.53;5009222;28;20470;-72
2021/07/03 00:41:25;;;;;;;0.70;0.70;;;13.10;99.90;;;-143.50;100.00;58913.53;4993390;28;20538;-73
2021/07/03 00:43:53;;;;;;;0.70;0.60;;;13.10;99.90;;;-143.50;100.00;58913.53;4989437;28;20455;-73
2021/07/03 00:46:22;;;;;;;0.77;0.70;;;13.20;99.90;;;-143.50;100.00;58913.53;5000959;28;20828;-73
2021/07/03 00:48:52;;;;;;;0.80;0.70;;;13.20;99.90;;;-143.50;100.00;58913.53;4993349;28;20519;-73
2021/07/03 00:51:22;;;;;;;0.70;0.70;;;13.20;99.90;;;-143.50;100.00;58913.53;4994184;28;20480;-73
2021/07/03 00:53:51;;;;;;;0.70;0.60;;;13.20;99.90;;;-143.50;100.00;58913.53;5024655;28;20470;-73
2021/07/03 00:56:19;;;;;;;0.80;0.70;;;13.20;99.90;;;-143.50;100.00;58913.53;4993165;28;20439;-73
2021/07/03 00:58:47;;;;;;;0.80;0.70;;;13.30;99.90;;;-143.50;100.00;58913.53;4994291;28;20924;-72
2021/07/03 01:01:15;;;;;;;0.80;0.80;;;13.30;99.90;;;-143.50;100.00;58913.53;4992498;28;20455;-72
2021/07/03 01:03:44;;;;;;;0.73;0.70;;;13.20;99.90;;;-143.50;100.00;58913.53;4993289;28;20450;-73
2021/07/03 01:06:13;;;;;;;0.70;0.60;;;13.20;99.90;;;-143.50;100.00;58913.53;4992719;28;20433;-73
2021/07/03 01:08:40;;;;;;;0.73;0.70;;;13.20;99.90;;;-143.50;100.00;58913.53;4993670;28;20474;-73
2021/07/03 01:11:08;;;;;;;0.70;0.60;;;13.30;99.90;;;-143.50;100.00;58913.53;4992117;28;20459;-73
2021/07/03 01:13:37;;;;;;;0.90;0.90;;;13.30;99.90;;;-143.50;100.00;58913.53;4990318;28;20459;-73
2021/07/03 01:16:12;;;;;;;0.80;0.70;;;13.20;99.90;;;-143.50;100.00;58913.53;4992533;28;20760;-72
2021/07/03 01:18:40;;;;;;;0.80;0.70;;;13.10;99.90;;;-143.50;100.00;58913.53;4994042;28;20434;-73
2021/07/03 01:21:10;;;;;;;0.70;0.60;;;13.10;99.90;;;-143.50;100.00;58913.53;4994298;28;20418;-74
2021/07/03 01:23:39;;;;;;;1.10;1.00;;;13.10;99.90;;;-143.50;100.00;58913.53;4992183;28;20565;-73
2021/07/03 01:26:10;;;;;;;0.70;0.70;;;13.10;99.90;;;-143.50;100.00;58913.53;4990606;28;20450;-73
2021/07/03 01:28:41;;;;;;;0.70;0.70;;;13.10;99.90;;;-143.50;100.00;58913.53;4992388;28;20834;-73
2021/07/03 01:31:10;;;;;;;0.70;0.70;;;13.10;99.90;;;-143.50;100.00;58913.53;4992486;28;20450;-73
2021/07/03 01:33:38;;;;;;;0.90;0.90;;;13.10;99.90;;;-143.50;100.00;58913.53;4993155;28;20458;-73
2021/07/03 01:36:06;;;;;;;0.70;0.70;;;13.10;99.90;;;-143.50;100.00;58913.53;4993164;28;20791;-73
2021/07/03 01:38:34;;;;;;;0.70;0.70;;;13.10;99.90;;;-143.50;100.00;58913.53;4992233;28;20478;-73
2021/07/03 01:41:10;;;;;;;0.70;0.60;;;13.10;99.90;;;-143.50;100.00;58913.53;4986989;28;20499;-73
2021/07/03 01:43:45;;;;;;;0.70;0.70;;;13.10;99.90;;;-143.50;100.00;58913.53;4974596;28;20851;-71
2021/07/03 01:46:14;;;;;;;0.70;0.70;;;13.10;99.90;;;-143.50;100.00;58913.53;4982250;28;21014;-73
2021/07/03 01:48:41;;;;;;;0.70;0.60;;;13.00;99.90;;;-143.50;100.00;58913.53;5008660;28;20501;-73
2021/07/03 01:51:25;;;;;;;1.13;1.03;;;13.00;99.90;;;-143.50;100.00;58913.53;4991388;28;20492;-73
2021/07/03 01:53:53;;;;;;;0.70;0.60;;;13.00;99.90;;;-143.50;100.00;58913.53;4991677;28;20474;-73
2021/07/03 01:56:23;;;;;;;0.70;0.70;;;13.00;99.90;;;-143.50;100.00;58913.53;4992957;28;20423;-73
2021/07/03 01:58:52;;;;;;;0.70;0.67;;;13.00;99.90;;;-143.50;100.00;58913.53;4991145;28;20446;-73
2021/07/03 02:01:29;;;;;;;0.80;0.70;;;13.00;99.90;;;-143.50;100.00;58913.53;5011679;28;20554;-73
2021/07/03 02:03:58;;;;;;;0.70;0.60;;;13.00;99.90;;;-143.50;100.00;58913.53;4995727;28;20799;-73
2021/07/03 02:06:37;;;;;;;0.70;0.60;;;13.00;99.90;;;-143.50;100.00;58913.53;4977011;28;20454;-74
2021/07/03 02:09:07;;;;;;;0.70;0.63;;;13.00;99.90;;;-143.50;100.00;58913.53;4976159;28;20475;-74
2021/07/03 02:11:38;;;;;;;0.80;0.70;;;13.00;99.90;;;-143.50;100.00;58913.53;4985024;28;20450;-73
2021/07/03 02:14:15;;;;;;;0.70;0.60;;;13.00;99.90;;;-143.50;100.00;58913.53;4995891;28;20432;-74
2021/07/03 02:16:56;;;;;;;0.70;0.70;;;13.00;99.90;;;-143.50;100.00;58913.53;4995143;28;20461;-73
2021/07/03 02:19:24;;;;;;;0.70;0.60;;;13.00;99.90;;;-143.50;100.00;58913.53;4997124;28;20439;-73
2021/07/03 02:21:54;;;;;;;0.70;0.70;;;13.00;99.90;;;-143.50;100.00;58913.53;5024474;28;20481;-73
2021/07/03 02:24:32;;;;;;;0.70;0.70;;;13.00;99.90;;;-143.50;100.00;58913.53;4994120;28;20470;-73
2021/07/03 02:27:04;;;;;;;0.70;0.70;;;13.00;99.90;;;-143.50;100.00;58913.53;4995488;28;20890;-73
2021/07/03 02:29:34;;;;;;;0.70;0.70;;;12.90;99.90;;;-143.50;100.00;58913.53;4995834;28;20510;-73
2021/07/03 02:32:03;;;;;;;0.80;0.73;;;12.80;99.90;;;-143.50;100.00;58913.53;4994525;28;20551;-73
2021/07/03 02:34:32;;;;;;;0.70;0.60;;;12.80;99.90;;;-143.50;100.00;58913.53;5027541;28;20462;-73
2021/07/03 02:37:00;;;;;;;0.80;0.80;;;12.80;99.90;;;-143.50;100.00;58913.53;4996215;28;20515;-73
2021/07/03 02:39:30;;;;;;;0.80;0.70;;;12.80;99.90;;;-143.50;100.00;58913.53;4996026;28;20454;-74
2021/07/03 02:41:58;;;;;;;0.70;0.70;;;12.80;99.90;;;-143.50;100.00;58913.53;4994292;28;20454;-73
2021/07/03 02:44:27;;;;;;;0.80;0.70;;;12.80;99.90;;;-143.50;100.00;58913.53;4996595;28;20419;-73
2021/07/03 02:46:56;;;;;;;0.80;0.70;;;12.70;99.90;;;-143.50;100.00;58913.53;4994874;28;20460;-73
2021/07/03 02:49:26;;;;;;;0.73;0.70;;;12.70;99.90;;;-143.50;100.00;58913.53;4995274;28;20472;-73
2021/07/03 02:51:55;;;;;;;0.70;0.70;;;12.70;99.90;;;-143.50;100.00;58913.53;4995076;28;20432;-73
2021/07/03 02:54:24;;;;;;;0.70;0.60;;;12.60;99.90;;;-143.50;100.00;58913.53;5027858;28;20467;-73
2021/07/03 02:56:57;;;;;;;0.80;0.70;;;12.60;99.90;;;-143.50;100.00;58913.53;4994344;28;20479;-73
2021/07/03 02:59:30;;;;;;;0.77;0.70;;;12.60;99.90;;;-143.50;100.00;58913.53;4991593;28;20859;-73
2021/07/03 03:02:00;;;;;;;0.70;0.60;;;12.60;99.90;;;-143.50;100.00;58913.53;4996053;28;20473;-72
2021/07/03 03:04:28;;;;;;;0.70;0.70;;;12.70;99.90;;;-143.50;100.00;58913.53;4995016;28;20449;-73
2021/07/03 03:06:56;;;;;;;0.70;0.60;;;12.70;99.90;;;-143.50;100.00;58913.53;4994277;28;20866;-73
2021/07/03 03:09:27;;;;;;;0.70;0.70;;;12.80;99.90;;;-143.50;100.00;58913.53;5027135;28;20486;-73
2021/07/03 03:11:56;;;;;;;0.70;0.70;;;12.90;99.90;;;-143.50;100.00;58913.53;4994182;28;20434;-74
2021/07/03 03:14:24;;;;;;;0.70;0.60;;;12.90;99.90;;;-143.50;100.00;58913.53;4995029;28;20438;-74
2021/07/03 03:16:56;;;;;;;0.70;0.70;;;12.90;99.90;;;-143.50;100.00;58913.53;5026553;28;21069;-73
2021/07/03 03:19:24;;;;;;;0.70;0.60;;;12.90;99.90;;;-143.50;100.00;58913.53;4995180;28;20408;-73
2021/07/03 03:21:51;;;;;;;0.70;0.60;;;12.90;99.90;;;-143.50;100.00;58913.53;4994508;28;20465;-73
2021/07/03 03:24:22;;;;;;;0.70;0.60;;;13.00;99.90;;;-143.50;100.00;58913.53;5027138;28;20562;-73
2021/07/03 03:26:50;;;;;;;0.80;0.73;;;13.10;99.90;;;-143.50;100.00;58913.53;4994454;28;20461;-73
2021/07/03 03:29:19;;;;;;;0.70;0.60;;;13.20;99.90;;;-143.50;100.00;58913.53;4995894;28;20473;-73
2021/07/03 03:31:47;;;;;;;0.70;0.70;;;13.20;99.90;;;-143.50;100.00;58913.53;4995953;28;20411;-73
2021/07/03 03:34:16;;;;;;;0.77;0.67;;;13.20;99.90;;;-143.50;100.00;58913.53;4995366;28;20455;-74
2021/07/03 03:36:45;;;;;;;0.77;0.77;;;13.30;99.90;;;-143.50;100.00;58913.53;4993247;28;20449;-73
2021/07/03 03:39:12;;;;;;;0.70;0.60;;;13.30;99.90;;;-143.50;100.00;58913.53;4994493;28;20470;-73
2021/07/03 03:41:40;;;;;;;0.70;0.60;;;13.30;99.90;;;-143.50;100.00;58913.53;4995560;28;20430;-73
2021/07/03 03:44:12;;;;;;;0.70;0.60;;;13.30;99.90;;;-143.50;100.00;58913.53;5026688;28;20504;-73
2021/07/03 03:46:40;;;;;;;0.70;0.60;;;13.30;99.90;;;-143.50;100.00;58913.53;5026361;28;20462;-73
2021/07/03 03:49:08;;;;;;;0.73;0.70;;;13.40;99.90;;;-143.50;100.00;58913.53;4995612;28;21001;-73
2021/07/03 03:51:38;;;;;;;0.70;0.60;;;13.40;99.90;;;-143.50;100.00;58913.53;4994205;28;20919;-73
2021/07/03 03:54:05;;;;;;;0.80;0.73;;;13.40;99.90;;;-143.50;100.00;58913.53;4993822;28;20546;-73
2021/07/03 03:56:34;;;;;;;0.70;0.70;;;13.50;99.90;;;-143.50;100.00;58913.53;4993141;28;20470;-73
2021/07/03 03:59:01;;;;;;;0.70;0.70;;;13.50;99.90;;;-143.50;100.00;58913.53;4995262;28;20407;-73
2021/07/03 04:01:32;;;;;;;0.70;0.60;;;13.60;99.90;;;-143.50;100.00;58913.53;4993546;28;20458;-73
2021/07/03 04:04:01;;;;;;;0.70;0.70;;;13.60;99.90;;;-143.50;100.00;58913.53;4993767;28;21044;-73
2021/07/03 04:06:29;;;;;;;0.80;0.70;;;13.70;99.90;;;-143.50;100.00;58913.53;4993790;28;20852;-73
2021/07/03 04:08:59;;;;;;;0.80;0.70;;;13.70;99.90;;;-143.50;100.00;58913.53;4993129;28;20508;-73
2021/07/03 04:11:29;;;;;;;0.80;0.80;;;13.80;99.90;;;-143.50;100.00;58913.53;4993419;28;20538;-73
2021/07/03 04:13:56;;;;;;;0.70;0.60;;;13.80;99.90;;;-143.50;100.00;58913.53;4994133;28;20456;-73
2021/07/03 04:16:24;;;;;;;0.70;0.67;;;13.80;99.90;;;-143.50;100.00;58913.53;4992504;28;20467;-73
2021/07/03 04:18:51;;;;;;;0.70;0.70;;;13.80;99.90;;;-143.50;100.00;58913.53;4994728;28;20995;-73
2021/07/03 04:21:18;;;;;;;0.70;0.70;;;13.80;99.90;;;-143.50;100.00;58913.53;4993956;28;20425;-73
2021/07/03 04:23:46;;;;;;;0.70;0.70;;;13.80;99.90;;;-143.50;100.00;58913.53;4993245;28;20475;-74
2021/07/03 04:26:15;;;;;;;0.70;0.60;;;13.80;99.90;;;-143.50;100.00;58913.53;4993546;28;20539;-74
2021/07/03 04:28:43;;;;;;;0.70;0.60;;;13.80;99.90;;;-143.50;100.00;58913.53;4995374;28;20466;-73
2021/07/03 04:31:10;;;;;;;0.70;0.70;;;13.80;99.90;;;-143.50;100.00;58913.53;4994327;28;20996;-73
2021/07/03 04:33:38;;;;;;;0.70;0.70;;;13.80;99.90;;;-143.50;100.00;58913.53;4993485;28;20475;-74
2021/07/03 04:36:06;;;;;;;0.70;0.70;;;13.90;99.90;;;-143.50;100.00;58913.53;4993217;28;20415;-72
2021/07/03 04:38:33;;;;;;;0.80;0.70;;;13.90;99.90;;;-143.50;100.00;58913.53;4994334;28;20449;-73
2021/07/03 04:41:01;;;;;;;0.70;0.60;;;13.90;99.90;;;-143.50;100.00;58913.53;4993415;28;20435;-73
2021/07/03 04:43:31;;;;;;;0.80;0.80;;;13.90;99.90;;;-143.50;100.00;58913.53;4992650;28;20523;-73
2021/07/03 04:45:59;;;;;;;0.70;0.70;;;13.90;99.90;;;-143.50;100.00;58913.53;4993437;28;20510;-73
2021/07/03 04:48:26;;;;;;;0.70;0.70;;;13.90;99.90;;;-143.50;100.00;58913.53;4994157;28;20815;-72
2021/07/03 04:50:55;;;;;;;0.70;0.70;;;13.90;99.90;;;-143.50;100.00;58913.53;4994002;28;20432;-73
2021/07/03 04:53:22;;;;;;;0.70;0.70;;;13.90;99.90;;;-143.50;100.00;58913.53;4992699;28;20462;-73
2021/07/03 04:55:49;;;;;;;0.80;0.77;;;14.00;99.90;;;-143.50;100.00;58913.53;4994238;28;20432;-73
2021/07/03 04:58:18;;;;;;;0.80;0.70;;;14.00;99.90;;;-143.50;100.00;58913.53;4994800;28;20464;-73
2021/07/03 05:00:47;;;;;;;0.70;0.60;;;14.10;99.90;;;-143.50;100.00;58913.53;4993936;28;20458;-73
2021/07/03 05:03:15;;;;;;;0.70;0.60;;;14.10;99.90;;;-143.50;100.00;58913.53;4992413;28;20451;-73
2021/07/03 05:05:43;;;;;;;0.70;0.70;;;14.10;99.90;;;-143.50;100.00;58913.53;4993558;28;20806;-73
2021/07/03 05:08:10;;;;;;;0.70;0.70;;;14.20;99.90;;;-143.50;100.00;58913.53;4993895;28;20558;-73
2021/07/03 05:10:37;;;;;;;0.70;0.70;;;14.20;99.90;;;-143.50;100.00;58913.53;4993605;28;20432;-73
2021/07/03 05:13:05;;;;;;;0.70;0.60;;;14.20;99.90;;;-143.50;100.00;58913.53;4993038;28;21039;-73
2021/07/03 05:15:33;;;;;;;0.70;0.60;;;14.20;99.90;;;-143.50;100.00;58913.53;4994031;28;20450;-73
2021/07/03 05:18:03;;;;;;;0.70;0.70;;;14.20;99.90;;;-143.50;100.00;58913.53;4994173;28;20900;-73
2021/07/03 05:20:31;;;;;;;0.70;0.70;;;14.20;99.90;;;-143.50;100.00;58913.53;4992993;28;20487;-73
2021/07/03 05:23:01;;;;;;;0.70;0.60;;;14.20;99.90;;;-143.50;100.00;58913.53;4993306;28;20445;-72
2021/07/03 05:25:30;;;;;;;0.70;0.60;;;14.20;99.90;;;-143.50;100.00;58913.53;4993629;28;20424;-73
2021/07/03 05:27:57;;;;;;;0.70;0.60;;;14.30;99.90;;;-143.50;100.00;58913.53;4993809;28;20423;-73
2021/07/03 05:30:25;;;;;;;0.70;0.60;;;14.40;99.90;;;-143.50;100.00;58913.53;4992647;28;20812;-74
2021/07/03 05:32:52;;;;;;;0.70;0.70;;;14.60;99.90;;;-143.50;100.00;58913.53;4993927;28;20426;-73
2021/07/03 05:35:21;;;;;;;0.70;0.70;;;14.70;99.90;;;-143.50;100.00;58913.53;4993258;28;20452;-73
2021/07/03 05:37:49;;;;;;;2.40;2.10;;;14.90;99.90;;;-143.50;100.00;58913.53;4993556;28;20964;-73
2021/07/03 05:40:17;;;;;;;0.70;0.70;;;15.00;99.90;;;-143.50;100.00;58913.53;4991531;28;20443;-71
2021/07/03 05:42:46;;;;;;;0.70;0.70;;;15.10;99.90;;;-143.50;100.00;58913.53;4993517;28;20514;-73
2021/07/03 05:45:15;;;;;;;0.70;0.60;;;15.30;99.90;;;-143.50;100.00;58913.53;4992990;28;20453;-73
2021/07/03 05:47:50;;;;;;;1.37;1.27;;;15.40;99.90;;;-143.50;100.00;58913.53;4993727;28;20433;-73
2021/07/03 05:50:19;;;;;;;0.80;0.70;;;15.60;99.90;;;-143.50;100.00;58913.53;4993324;28;20465;-73
2021/07/03 05:52:49;;;;;;;0.70;0.70;;;15.80;99.90;;;-143.50;100.00;58913.53;4991309;28;20470;-73
2021/07/03 05:55:18;;;;;;;0.70;0.70;;;15.90;99.90;;;-143.50;100.00;58913.53;5007646;28;20469;-73
2021/07/03 05:57:45;;;;;;;0.70;0.70;;;16.00;99.90;;;-143.50;100.00;58913.53;4989737;28;20533;-71
2021/07/03 06:00:16;;;;;;;0.70;0.60;;;16.10;99.90;;;-143.50;100.00;58913.53;4988257;28;20904;-73
2021/07/03 06:02:45;;;;;;;0.70;0.70;;;16.20;99.90;;;-143.50;100.00;58913.53;4980652;28;20450;-73
2021/07/03 06:05:13;;;;;;;0.80;0.70;;;16.40;99.90;;;-143.50;100.00;58913.53;4972835;28;20493;-72
2021/07/03 06:07:40;;;;;;;0.70;0.60;;;16.50;99.90;;;-143.50;100.00;58913.53;4989626;28;20932;-73
2021/07/03 06:10:11;;;;;;;0.70;0.67;;;16.60;99.90;;;-143.50;100.00;58913.53;4993027;28;20496;-74
2021/07/03 06:12:40;;;;;;;0.70;0.60;;;16.80;99.90;;;-143.50;100.00;58913.53;4990581;28;20450;-73
2021/07/03 06:15:12;;;;;;;0.70;0.60;;;16.90;99.90;;;-143.50;100.00;58913.53;4979022;28;21008;-73
2021/07/03 06:17:42;;;;;;;0.70;0.60;;;17.00;99.90;;;-143.50;100.00;58913.53;4993000;28;20469;-74
2021/07/03 06:20:10;;;;;;;0.70;0.60;;;17.10;99.90;;;-143.50;100.00;58913.53;4993398;28;20464;-73
2021/07/03 06:22:38;;;;;;;0.70;0.70;;;17.20;99.90;;;-143.50;100.00;58913.53;4992621;28;20507;-73
2021/07/03 06:25:11;;;;;;;0.70;0.70;;;17.30;99.90;;;-143.50;100.00;58913.53;4993391;28;20425;-74
2021/07/03 06:27:39;;;;;;;0.73;0.70;;;17.40;99.90;;;-143.50;100.00;58913.53;4992976;28;20439;-72
2021/07/03 06:30:10;;;;;;;0.70;0.60;;;17.50;99.90;;;-143.50;100.00;58913.53;4993125;28;20469;-73
2021/07/03 06:32:37;;;;;;;0.70;0.60;;;17.60;99.90;;;-143.50;100.00;58913.53;4991449;28;20926;-73
2021/07/03 06:35:08;;;;;;;0.70;0.67;;;17.70;99.90;;;-143.50;100.00;58913.53;4973431;28;20442;-74
2021/07/03 06:37:35;;;;;;;0.80;0.77;;;17.90;99.90;;;-143.50;100.00;58913.53;4991829;28;20508;-74
2021/07/03 06:40:05;;;;;;;0.70;0.60;;;18.00;99.90;;;-143.50;100.00;58913.53;4992603;28;20834;-73
2021/07/03 06:42:34;;;;;;;0.70;0.60;;;18.10;99.90;;;-143.50;100.00;58913.53;4992379;28;20516;-73
2021/07/03 06:45:05;;;;;;;1.47;1.37;;;18.30;99.90;;;-143.50;100.00;58913.53;4991331;28;20450;-73
2021/07/03 06:47:33;;;;;;;0.80;0.70;;;18.40;99.90;;;-143.50;100.00;58913.53;5025441;28;20455;-73
2021/07/03 06:50:01;;;;;;;0.70;0.60;;;18.60;99.90;;;-143.50;100.00;58913.53;4989382;28;20461;-73
2021/07/03 06:52:29;;;;;;;0.70;0.70;;;18.80;99.90;;;-143.50;100.00;58913.53;4995844;28;20918;-73
2021/07/03 06:54:56;;;;;;;0.70;0.60;;;18.90;99.90;;;-143.50;100.00;58913.53;5009864;28;20826;-73
2021/07/03 06:57:25;;;;;;;0.80;0.80;;;19.10;99.90;;;-143.50;100.00;58913.53;4991564;28;20501;-72
2021/07/03 06:59:54;;;;;;;0.70;0.60;;;19.20;99.90;;;-143.50;100.00;58913.53;4993567;28;20462;-73
2021/07/03 07:02:22;;;;;;;0.80;0.70;;;19.40;99.90;;;-143.50;100.00;58913.53;4996035;28;20911;-73
2021/07/03 07:04:50;;;;;;;0.70;0.70;;;19.50;99.90;;;-143.50;100.00;58913.53;4995542;28;20415;-73
2021/07/03 07:07:20;;;;;;;0.73;0.60;;;19.70;99.90;;;-143.50;100.00;58913.53;4984660;28;20932;-73
2021/07/03 07:09:48;;;;;;;0.70;0.60;;;19.80;99.90;;;-143.50;100.00;58913.53;4983339;28;21232;-73
2021/07/03 07:12:16;;;;;;;0.80;0.80;;;19.90;99.90;;;-143.50;100.00;58913.53;4986828;28;20394;-73
2021/07/03 07:14:44;;;;;;;0.70;0.60;;;20.10;99.90;;;-143.50;100.00;58913.53;4985703;28;20478;-72
2021/07/03 07:17:13;;;;;;;0.80;0.70;;;20.30;99.90;;;-143.50;100.00;58913.53;4986924;28;20466;-72
2021/07/03 07:19:40;;;;;;;5.23;1.80;;;20.40;99.90;;;-143.50;100.00;58913.53;5020540;28;20541;-73
2021/07/03 07:22:08;;;;;;;0.70;0.60;;;20.50;99.90;;;-143.50;100.00;58913.53;4987084;28;20810;-73
2021/07/03 07:24:36;;;;;;;0.70;0.60;;;20.60;99.90;;;-143.50;100.00;58913.53;4991181;28;20814;-73
2021/07/03 07:27:04;;;;;;;0.70;0.60;;;20.70;99.90;;;-143.50;100.00;58913.53;4985964;28;20517;-71
2021/07/03 07:29:31;;;;;;;5.33;1.07;;;20.80;99.90;;;-143.50;100.00;58913.53;4986502;28;20447;-73
2021/07/03 07:31:59;;;;;;;0.73;0.60;;;21.00;99.90;;;-143.50;100.00;58913.53;4986989;28;20386;-73
2021/07/03 07:34:28;;;;;;;0.70;0.60;;;21.00;99.90;;;-143.50;100.00;58913.53;4985089;28;20397;-73
2021/07/03 07:36:55;;;;;;;0.70;0.60;;;21.10;99.90;;;-143.50;100.00;58913.53;4992254;28;20439;-73
2021/07/03 07:39:23;;;;;;;0.80;0.70;;;21.40;99.90;;;-143.50;100.00;58913.53;4985422;28;20951;-73
2021/07/03 07:41:51;;;;;;;0.70;0.60;;;21.60;99.90;;;-143.50;100.00;58913.53;5027096;28;20467;-73
2021/07/03 07:44:18;;;;;;;0.80;0.70;;;21.70;99.90;;;-143.50;100.00;58913.53;4994018;28;20505;-72
2021/07/03 07:46:46;;;;;;;0.80;0.70;;;21.90;99.90;;;-143.50;100.00;58913.53;4992315;28;20429;-73
2021/07/03 07:49:13;;;;;;;0.80;0.70;;;22.00;99.90;;;-143.50;100.00;58913.53;4992258;28;20550;-73
2021/07/03 07:51:44;;;;;;;0.80;0.60;;;22.20;99.90;;;-143.50;100.00;58913.53;4993771;28;20397;-73
2021/07/03 07:54:11;;;;;;;0.70;0.70;;;22.40;99.90;;;-143.50;100.00;58913.53;4993549;28;20525;-73
2021/07/03 07:56:39;;;;;;;0.77;0.60;;;22.50;99.90;;;-143.50;100.00;58913.53;4993197;28;20461;-72
2021/07/03 07:59:07;;;;;;;0.70;0.60;;;22.60;99.90;;;-143.50;100.00;58913.53;4984359;28;20906;-73
2021/07/03 08:01:34;;;;;;;0.80;0.70;;;22.70;99.90;;;-143.50;100.00;58913.53;5009346;28;20970;-73
2021/07/03 08:04:02;;;;;;;0.80;0.60;;;22.80;99.90;;;-143.50;100.00;58913.53;4991020;28;20420;-73
2021/07/03 08:06:29;;;;;;;0.80;0.60;;;22.90;99.90;;;-143.50;100.00;58913.53;4986880;28;20524;-73
2021/07/03 08:08:58;;;;;;;0.80;0.60;;;23.00;99.90;;;-143.50;100.00;58913.53;4993275;28;20464;-73
2021/07/03 08:11:26;;;;;;;0.80;0.80;;;23.20;99.90;;;-143.50;100.00;58913.53;4981327;28;20486;-74
2021/07/03 08:14:10;;;;;;;0.80;0.60;;;23.30;99.90;;;-143.50;100.00;58913.53;4985721;28;20446;-73
2021/07/03 08:16:38;;;;;;;0.70;0.53;;;23.50;99.90;;;-143.50;100.00;58913.53;4990153;28;20447;-73
2021/07/03 08:19:05;;;;;;;0.80;0.70;;;23.70;99.90;;;-143.50;100.00;58913.53;4990880;28;20542;-73
2021/07/03 08:21:33;;;;;;;0.70;0.60;;;23.80;99.90;;;-143.50;100.00;58913.53;4984764;28;20457;-73
2021/07/03 08:24:03;;;;;;;0.70;0.60;;;24.00;99.90;;;-143.50;100.00;58913.53;4988590;28;20533;-73
2021/07/03 08:26:30;;;;;;;0.70;0.60;;;24.20;99.90;;;-143.50;100.00;58913.53;4985231;28;20443;-73
2021/07/03 08:28:57;;;;;;;0.70;0.60;;;24.30;99.90;;;-143.50;100.00;58913.53;4973771;28;20519;-73
2021/07/03 08:31:25;;;;;;;0.70;0.50;;;24.40;99.90;;;-143.50;100.00;58913.53;4991866;28;20434;-74
2021/07/03 08:33:52;;;;;;;0.70;0.57;;;24.50;99.90;;;-143.50;100.00;58913.53;4992799;28;20837;-74
2021/07/03 08:36:20;;;;;;;0.70;0.60;;;24.70;99.90;;;-143.50;100.00;58913.53;4992587;28;20450;-73
2021/07/03 08:38:48;;;;;;;0.70;0.60;;;24.80;99.90;;;-143.50;100.00;58913.53;4994340;28;20450;-73
2021/07/03 08:41:17;;;;;;;0.70;0.60;;;25.00;99.90;;;-143.50;100.00;58913.53;4990265;28;20873;-71
2021/07/03 08:43:45;;;;;;;0.70;0.60;;;25.40;99.90;;;-143.50;100.00;58913.53;4992357;28;20453;-74
2021/07/03 08:46:16;;;;;;;0.80;0.70;;;25.50;99.90;;;-143.50;100.00;58913.53;4994813;28;20634;-74
2021/07/03 08:48:45;;;;;;;0.70;0.50;;;25.80;99.90;;;-143.50;100.00;58913.53;4992920;28;20466;-72
2021/07/03 08:51:13;;;;;;;0.70;0.50;;;26.10;99.90;;;-143.50;100.00;58913.53;4993555;28;20475;-74
2021/07/03 08:53:40;;;;;;;0.70;0.60;;;26.30;99.90;;;-143.50;100.00;58913.53;4993875;28;20545;-74
2021/07/03 08:56:08;;;;;;;0.70;0.50;;;26.70;99.90;;;-143.50;100.00;58913.53;4994330;28;20438;-74
2021/07/03 08:58:37;;;;;;;0.70;0.50;;;27.00;99.90;;;-143.50;100.00;58913.53;4991439;28;20466;-73
2021/07/03 09:01:05;;;;;;;0.70;0.50;;;27.20;98.20;;;-143.50;100.00;58913.53;4994589;28;20443;-73
2021/07/03 09:03:33;;;;;;;0.70;0.50;;;27.30;91.40;;;-143.50;100.00;58913.53;4992519;28;20533;-74
2021/07/03 09:06:06;;;;;;;0.70;0.50;;;27.60;87.80;;;-143.50;100.00;58913.53;4994518;28;20415;-74
2021/07/03 09:08:34;;;;;;;0.70;0.50;;;27.90;81.30;;;-143.50;100.00;58913.53;5024523;28;20482;-74
2021/07/03 09:11:05;;;;;;;0.70;0.50;;;28.20;68.10;;;-143.50;100.00;58913.53;4992663;28;20458;-74
2021/07/03 09:13:37;;;;;;;0.70;0.50;;;28.30;58.20;;;-143.50;100.00;58913.53;4985571;28;20486;-74
2021/07/03 09:16:06;;;;;;;0.90;0.80;;;28.40;57.90;;;-143.50;100.00;58913.53;4992448;28;20508;-76
2021/07/03 09:18:34;;;;;;;0.70;0.50;;;28.90;52.40;;;-143.50;100.00;58913.53;4993776;28;20467;-76
2021/07/03 09:21:04;;;;;;;0.70;0.50;;;29.30;50.30;;;-143.50;100.00;58913.53;4979737;28;20431;-72
2021/07/03 09:23:36;;;;;;;1.67;0.73;;;29.80;44.00;;;-143.50;100.00;58913.53;4974236;28;20543;-73
2021/07/03 09:26:06;;;;;;;0.70;0.50;;;30.10;40.10;;;-143.50;100.00;58913.53;4982273;28;20514;-72
2021/07/03 09:28:38;;;;;;;0.80;0.57;;;30.30;38.60;;;-143.50;100.00;58913.53;4993936;28;20856;-73
2021/07/03 09:31:07;;;;;;;0.80;0.50;;;30.90;39.30;;;-143.50;100.00;58913.53;4992761;28;20958;-72
2021/07/03 09:33:39;;;;;;;0.80;0.50;;;30.80;34.40;;;-143.50;100.00;58913.53;4993728;28;20430;-72
2021/07/03 09:36:10;;;;;;;0.80;0.50;;;31.10;29.80;;;-143.50;100.00;58913.53;4993715;28;20896;-73
2021/07/03 09:38:40;;;;;;;0.80;0.50;;;31.80;31.70;;;-143.50;100.00;58913.53;4993359;28;20442;-73
2021/07/03 09:41:11;;;;;;;0.90;0.60;;;32.40;28.10;;;-143.50;100.00;58913.53;4992125;28;20434;-72
2021/07/03 09:43:58;;;;;;;0.80;0.50;;;32.60;23.40;;;-143.50;100.00;58913.53;4992218;28;20871;-73
2021/07/03 09:46:28;;;;;;;0.80;0.50;;;32.90;23.20;;;-143.50;100.00;58913.53;4991974;28;20449;-73
2021/07/03 09:48:58;;;;;;;0.80;0.50;;;33.50;20.50;;;-143.50;100.00;58913.53;4993810;28;20489;-72
2021/07/03 09:51:28;;;;;;;0.90;0.70;;;34.40;18.00;;;-143.50;100.00;58913.53;4991659;28;20990;-73
2021/07/03 09:53:58;;;;;;;0.80;0.50;;;34.90;18.20;;;-143.50;100.00;58913.53;4993421;28;20954;-73
2021/07/03 09:56:27;;;;;;;0.80;0.50;;;34.20;15.60;;;-143.50;100.00;58913.53;4991978;28;20187;-72
2021/07/03 09:58:57;;;;;;;0.80;0.50;;;34.40;17.40;;;-143.50;100.00;58913.53;4991373;28;20227;-72
2021/07/03 10:01:25;;;;;;;0.80;0.50;;;34.40;13.70;;;-143.50;100.00;58913.53;4992156;28;20726;-71
2021/07/03 10:03:53;;;;;;;0.80;0.50;;;34.90;12.10;;;-143.50;100.00;58913.53;4991368;28;20622;-72
2021/07/03 10:06:29;;;;;;;0.90;0.50;;;35.10;16.20;;;-143.50;100.00;58913.53;4993053;28;20187;-72
2021/07/03 10:09:02;;;;;;;0.80;0.50;;;34.90;11.10;;;-143.50;100.00;58913.53;4993467;28;20217;-71